createdAt,value
2018-09-25T00:00:22.493Z,75.02
2018-09-25T00:01:22.488Z,75.30
2018-09-25T00:02:22.472Z,74.92
2018-09-25T00:03:22.461Z,75.21
2018-09-25T00:04:22.442Z,74.73
2018-09-25T00:05:22.432Z,74.54
2018-09-25T00:06:22.422Z,74.44
2018-09-25T00:07:22.403Z,74.63
2018-09-25T00:08:22.390Z,75.21
2018-09-25T00:09:22.378Z,75.11
2018-09-25T00:10:22.426Z,75.78
2018-09-25T00:11:22.354Z,75.30
2018-09-25T00:12:22.342Z,75.30
2018-09-25T00:13:22.324Z,75.49
2018-09-25T00:14:22.311Z,75.59
2018-09-25T00:15:22.297Z,75.11
2018-09-25T00:16:22.284Z,75.11
2018-09-25T00:17:22.269Z,75.30
2018-09-25T00:18:22.257Z,75.59
2018-09-25T00:19:22.242Z,75.59
2018-09-25T00:20:22.243Z,76.06
2018-09-25T00:21:22.221Z,76.06
2018-09-25T00:22:22.204Z,75.96
2018-09-25T00:23:22.190Z,75.87
2018-09-25T00:24:22.175Z,75.96
2018-09-25T00:25:22.160Z,75.87
2018-09-25T00:26:22.149Z,75.87
2018-09-25T00:27:22.137Z,75.68
2018-09-25T00:28:22.119Z,75.59
2018-09-25T00:29:22.112Z,75.59
2018-09-25T00:30:22.096Z,75.59
2018-09-25T00:31:22.082Z,75.30
2018-09-25T00:32:22.068Z,75.40
2018-09-25T00:33:22.054Z,75.40
2018-09-25T00:34:22.041Z,75.21
2018-09-25T00:35:22.034Z,75.59
2018-09-25T00:36:22.014Z,75.87
2018-09-25T00:37:22.009Z,76.25
2018-09-25T00:38:21.988Z,76.25
2018-09-25T00:39:21.975Z,75.87
2018-09-25T00:40:21.960Z,76.06
2018-09-25T00:41:21.954Z,76.54
2018-09-25T00:42:21.935Z,76.06
2018-09-25T00:43:21.920Z,75.87
2018-09-25T00:44:21.907Z,75.96
2018-09-25T00:45:21.894Z,75.68
2018-09-25T00:46:21.883Z,76.06
2018-09-25T00:47:21.869Z,75.40
2018-09-25T00:48:21.854Z,74.92
2018-09-25T00:49:21.838Z,75.02
2018-09-25T00:50:21.830Z,74.82
2018-09-25T00:51:21.815Z,74.54
2018-09-25T00:52:21.805Z,74.63
2018-09-25T00:53:21.787Z,74.63
2018-09-25T00:54:21.772Z,74.16
2018-09-25T00:55:21.767Z,73.97
2018-09-25T00:56:21.748Z,73.97
2018-09-25T00:57:21.740Z,73.59
2018-09-25T00:58:21.735Z,73.59
2018-09-25T00:59:21.716Z,73.49
2018-09-25T01:00:21.694Z,73.40
2018-09-25T01:01:21.685Z,72.92
2018-09-25T01:02:21.667Z,72.92
2018-09-25T01:03:21.654Z,72.83
2018-09-25T01:04:21.644Z,72.83
2018-09-25T01:05:21.625Z,73.21
2018-09-25T01:06:21.616Z,73.08
2018-09-25T01:07:21.599Z,73.69
2018-09-25T01:08:21.588Z,73.65
2018-09-25T01:09:21.571Z,73.65
2018-09-25T01:10:21.558Z,73.65
2018-09-25T01:11:21.545Z,73.36
2018-09-25T01:12:21.536Z,72.70
2018-09-25T01:13:21.519Z,72.51
2018-09-25T01:14:21.560Z,72.03
2018-09-25T01:15:21.494Z,72.03
2018-09-25T01:16:21.480Z,72.03
2018-09-25T01:17:21.467Z,72.60
2018-09-25T01:18:21.448Z,72.41
2018-09-25T01:19:21.529Z,72.70
2018-09-25T01:20:21.427Z,72.60
2018-09-25T01:21:21.413Z,72.99
2018-09-25T01:22:21.395Z,73.08
2018-09-25T01:23:21.383Z,73.65
2018-09-25T01:24:21.366Z,73.65
2018-09-25T01:25:21.360Z,73.27
2018-09-25T01:26:21.343Z,73.55
2018-09-25T01:27:21.334Z,73.74
2018-09-25T01:28:21.315Z,73.36
2018-09-25T01:29:21.307Z,73.27
2018-09-25T01:30:21.290Z,73.27
2018-09-25T01:31:21.276Z,73.55
2018-09-25T01:32:21.259Z,73.55
2018-09-25T01:33:21.250Z,73.36
2018-09-25T01:34:21.236Z,73.55
2018-09-25T01:35:21.221Z,73.27
2018-09-25T01:36:21.206Z,73.36
2018-09-25T01:37:21.194Z,72.99
2018-09-25T01:38:21.182Z,72.99
2018-09-25T01:39:21.164Z,73.27
2018-09-25T01:40:21.152Z,73.08
2018-09-25T01:41:21.142Z,72.85
2018-09-25T01:42:21.126Z,73.65
2018-09-25T01:43:21.113Z,73.61
2018-09-25T01:44:21.099Z,73.71
2018-09-25T01:45:21.091Z,74.08
2018-09-25T01:46:21.074Z,73.90
2018-09-25T01:47:21.057Z,73.99
2018-09-25T01:48:21.048Z,73.90
2018-09-25T01:49:21.030Z,74.18
2018-09-25T01:50:21.019Z,74.18
2018-09-25T01:51:21.003Z,74.27
2018-09-25T01:52:20.987Z,74.08
2018-09-25T01:53:20.980Z,74.08
2018-09-25T01:54:20.964Z,73.99
2018-09-25T01:55:20.952Z,73.99
2018-09-25T01:56:20.933Z,74.56
2018-09-25T01:57:20.921Z,74.27
2018-09-25T01:58:20.910Z,74.08
2018-09-25T01:59:20.889Z,74.18
2018-09-25T02:00:20.882Z,73.23
2018-09-25T02:01:20.864Z,73.71
2018-09-25T02:02:20.854Z,73.33
2018-09-25T02:03:20.842Z,73.61
2018-09-25T02:04:20.828Z,74.08
2018-09-25T02:05:20.814Z,74.27
2018-09-25T02:06:20.794Z,74.47
2018-09-25T02:07:20.780Z,74.66
2018-09-25T02:08:20.768Z,74.75
2018-09-25T02:09:20.758Z,75.04
2018-09-25T02:10:20.743Z,75.23
2018-09-25T02:11:20.731Z,74.94
2018-09-25T02:12:20.715Z,75.32
2018-09-25T02:13:20.701Z,75.04
2018-09-25T02:14:20.688Z,75.23
2018-09-25T02:15:20.673Z,76.18
2018-09-25T02:16:20.670Z,76.61
2018-09-25T02:17:20.647Z,77.47
2018-09-25T02:18:20.634Z,77.75
2018-09-25T02:19:20.643Z,78.42
2018-09-25T02:20:20.604Z,78.89
2018-09-25T02:21:20.598Z,78.89
2018-09-25T02:22:20.576Z,79.08
2018-09-25T02:23:20.569Z,78.70
2018-09-25T02:24:20.547Z,78.32
2018-09-25T02:25:20.527Z,77.75
2018-09-25T02:26:20.523Z,77.94
2018-09-25T02:27:20.501Z,78.32
2018-09-25T02:28:20.492Z,77.56
2018-09-25T02:29:20.476Z,77.37
2018-09-25T02:30:20.468Z,77.28
2018-09-25T02:31:20.452Z,76.42
2018-09-25T02:32:20.439Z,76.71
2018-09-25T02:33:20.417Z,76.52
2018-09-25T02:34:20.409Z,75.95
2018-09-25T02:35:20.391Z,75.85
2018-09-25T02:36:20.389Z,75.85
2018-09-25T02:37:20.367Z,75.76
2018-09-25T02:38:20.353Z,75.57
2018-09-25T02:39:20.337Z,75.89
2018-09-25T02:40:20.324Z,75.79
2018-09-25T02:41:20.306Z,76.08
2018-09-25T02:42:20.300Z,75.32
2018-09-25T02:43:20.281Z,75.67
2018-09-25T02:44:20.267Z,75.47
2018-09-25T02:45:20.254Z,75.67
2018-09-25T02:46:20.242Z,75.47
2018-09-25T02:47:20.227Z,75.38
2018-09-25T02:48:20.211Z,75.04
2018-09-25T02:49:20.197Z,75.28
2018-09-25T02:50:20.188Z,75.28
2018-09-25T02:51:20.166Z,76.18
2018-09-25T02:52:20.155Z,76.08
2018-09-25T02:53:20.141Z,75.99
2018-09-25T02:54:20.129Z,76.32
2018-09-25T02:55:20.113Z,76.80
2018-09-25T02:56:20.104Z,76.75
2018-09-25T02:57:20.085Z,76.52
2018-09-25T02:58:20.074Z,76.52
2018-09-25T02:59:20.063Z,76.52
2018-09-25T03:00:20.043Z,76.52
2018-09-25T03:01:20.027Z,76.52
2018-09-25T03:02:20.015Z,76.61
2018-09-25T03:03:20.001Z,76.61
2018-09-25T03:04:19.988Z,76.42
2018-09-25T03:05:19.981Z,76.23
2018-09-25T03:06:19.959Z,76.99
2018-09-25T03:07:19.947Z,77.18
2018-09-25T03:08:19.934Z,77.37
2018-09-25T03:09:19.918Z,77.28
2018-09-25T03:10:19.912Z,77.75
2018-09-25T03:11:19.890Z,77.75
2018-09-25T03:12:19.874Z,77.18
2018-09-25T03:13:19.860Z,77.09
2018-09-25T03:14:19.846Z,77.37
2018-09-25T03:15:19.839Z,77.56
2018-09-25T03:16:19.817Z,77.66
2018-09-25T03:17:19.801Z,77.84
2018-09-25T03:18:19.789Z,78.09
2018-09-25T03:19:19.849Z,78.42
2018-09-25T03:20:19.777Z,78.19
2018-09-25T03:21:19.751Z,78.85
2018-09-25T03:22:19.734Z,78.38
2018-09-25T03:23:19.722Z,79.14
2018-09-25T03:24:19.709Z,78.75
2018-09-25T03:25:19.686Z,78.56
2018-09-25T03:26:19.676Z,78.66
2018-09-25T03:27:19.667Z,79.33
2018-09-25T03:28:19.652Z,79.23
2018-09-25T03:29:19.631Z,79.42
2018-09-25T03:30:19.623Z,78.85
2018-09-25T03:31:19.604Z,79.14
2018-09-25T03:32:19.594Z,78.47
2018-09-25T03:33:19.578Z,78.56
2018-09-25T03:34:19.568Z,78.75
2018-09-25T03:35:19.552Z,78.32
2018-09-25T03:36:19.536Z,78.42
2018-09-25T03:37:19.520Z,78.23
2018-09-25T03:38:19.503Z,77.84
2018-09-25T03:39:19.487Z,78.03
2018-09-25T03:40:19.480Z,77.94
2018-09-25T03:41:19.463Z,77.47
2018-09-25T03:42:19.447Z,77.66
2018-09-25T03:43:19.431Z,77.56
2018-09-25T03:44:19.419Z,77.56
2018-09-25T03:45:19.405Z,77.56
2018-09-25T03:46:19.393Z,77.18
2018-09-25T03:47:19.374Z,76.80
2018-09-25T03:48:19.368Z,77.28
2018-09-25T03:49:19.357Z,77.09
2018-09-25T03:50:19.335Z,77.28
2018-09-25T03:51:19.323Z,77.28
2018-09-25T03:52:19.313Z,76.99
2018-09-25T03:53:19.294Z,76.90
2018-09-25T03:54:19.282Z,77.18
2018-09-25T03:55:19.266Z,77.18
2018-09-25T03:56:19.252Z,76.61
2018-09-25T03:57:19.236Z,77.28
2018-09-25T03:58:19.221Z,76.61
2018-09-25T03:59:19.213Z,76.32
2018-09-25T04:00:19.193Z,76.61
2018-09-25T04:01:19.177Z,76.42
2018-09-25T04:02:19.168Z,76.42
2018-09-25T04:03:19.150Z,76.42
2018-09-25T04:04:19.134Z,76.52
2018-09-25T04:05:19.119Z,76.42
2018-09-25T04:06:19.197Z,76.80
2018-09-25T04:07:19.098Z,76.61
2018-09-25T04:08:19.076Z,76.32
2018-09-25T04:09:19.068Z,76.32
2018-09-25T04:10:19.055Z,76.04
2018-09-25T04:11:19.039Z,76.04
2018-09-25T04:12:19.028Z,76.32
2018-09-25T04:13:19.011Z,76.32
2018-09-25T04:14:18.993Z,76.23
2018-09-25T04:15:18.983Z,76.32
2018-09-25T04:16:18.964Z,76.04
2018-09-25T04:17:18.958Z,76.14
2018-09-25T04:18:18.936Z,76.23
2018-09-25T04:19:18.918Z,76.04
2018-09-25T04:20:18.906Z,76.14
2018-09-25T04:21:18.898Z,75.95
2018-09-25T04:22:18.880Z,76.61
2018-09-25T04:23:18.895Z,76.42
2018-09-25T04:24:18.851Z,76.52
2018-09-25T04:25:18.840Z,76.80
2018-09-25T04:26:18.821Z,76.61
2018-09-25T04:27:18.812Z,76.61
2018-09-25T04:28:18.855Z,76.61
2018-09-25T04:29:18.778Z,76.71
2018-09-25T04:30:18.767Z,76.42
2018-09-25T04:31:18.748Z,76.80
2018-09-25T04:32:18.735Z,76.29
2018-09-25T04:33:18.720Z,76.39
2018-09-25T04:34:18.709Z,76.48
2018-09-25T04:35:18.695Z,76.39
2018-09-25T04:36:18.679Z,76.76
2018-09-25T04:37:18.721Z,75.91
2018-09-25T04:38:18.644Z,76.67
2018-09-25T04:39:18.639Z,76.57
2018-09-25T04:40:18.615Z,76.48
2018-09-25T04:41:18.605Z,76.29
2018-09-25T04:42:18.599Z,76.48
2018-09-25T04:43:18.579Z,76.57
2018-09-25T04:44:18.564Z,77.14
2018-09-25T04:45:18.552Z,77.20
2018-09-25T04:46:18.534Z,77.52
2018-09-25T04:47:18.520Z,78.09
2018-09-25T04:48:18.508Z,77.77
2018-09-25T04:49:18.491Z,77.62
2018-09-25T04:50:18.479Z,77.90
2018-09-25T04:51:18.465Z,77.81
2018-09-25T04:52:18.449Z,78.00
2018-09-25T04:53:18.433Z,77.62
2018-09-25T04:54:18.419Z,77.62
2018-09-25T04:55:18.405Z,77.62
2018-09-25T04:56:18.389Z,78.19
2018-09-25T04:57:18.378Z,78.09
2018-09-25T04:58:18.362Z,78.19
2018-09-25T04:59:18.354Z,77.90
2018-09-25T05:00:18.329Z,77.52
2018-09-25T05:01:18.314Z,77.52
2018-09-25T05:02:18.304Z,77.43
2018-09-25T05:03:18.288Z,77.33
2018-09-25T05:04:18.273Z,77.52
2018-09-25T05:05:18.256Z,77.33
2018-09-25T05:06:18.246Z,77.14
2018-09-25T05:07:18.229Z,76.95
2018-09-25T05:08:18.216Z,76.95
2018-09-25T05:09:18.205Z,77.52
2018-09-25T05:10:18.186Z,77.62
2018-09-25T05:11:18.172Z,77.52
2018-09-25T05:12:18.156Z,77.05
2018-09-25T05:13:18.144Z,77.05
2018-09-25T05:14:18.129Z,77.33
2018-09-25T05:15:18.116Z,77.05
2018-09-25T05:16:18.107Z,77.05
2018-09-25T05:17:18.091Z,76.67
2018-09-25T05:18:18.140Z,76.39
2018-09-25T05:19:18.061Z,76.76
2018-09-25T05:20:18.045Z,77.43
2018-09-25T05:21:18.028Z,76.86
2018-09-25T05:22:18.012Z,76.57
2018-09-25T05:23:18.051Z,76.39
2018-09-25T05:24:17.985Z,77.11
2018-09-25T05:25:17.969Z,77.29
2018-09-25T05:26:17.956Z,77.67
2018-09-25T05:27:17.947Z,77.77
2018-09-25T05:28:17.928Z,78.24
2018-09-25T05:29:17.910Z,78.05
2018-09-25T05:30:17.898Z,78.15
2018-09-25T05:31:17.889Z,78.15
2018-09-25T05:32:17.868Z,78.34
2018-09-25T05:33:17.852Z,78.62
2018-09-25T05:34:17.840Z,78.28
2018-09-25T05:35:17.826Z,78.38
2018-09-25T05:36:17.805Z,78.28
2018-09-25T05:37:17.803Z,77.90
2018-09-25T05:38:17.782Z,77.52
2018-09-25T05:39:17.770Z,77.62
2018-09-25T05:40:17.754Z,78.09
2018-09-25T05:41:17.742Z,77.96
2018-09-25T05:42:17.723Z,77.77
2018-09-25T05:43:17.709Z,77.77
2018-09-25T05:44:17.699Z,78.24
2018-09-25T05:45:17.679Z,78.56
2018-09-25T05:46:17.664Z,78.15
2018-09-25T05:47:17.652Z,78.53
2018-09-25T05:48:17.702Z,78.53
2018-09-25T05:49:17.627Z,78.24
2018-09-25T05:50:17.602Z,77.77
2018-09-25T05:51:17.591Z,77.81
2018-09-25T05:52:17.577Z,77.71
2018-09-25T05:53:17.557Z,77.71
2018-09-25T05:54:17.558Z,78.00
2018-09-25T05:55:17.532Z,77.81
2018-09-25T05:56:17.517Z,77.62
2018-09-25T05:57:17.502Z,77.52
2018-09-25T05:58:17.495Z,77.71
2018-09-25T05:59:17.475Z,77.43
2018-09-25T06:00:17.463Z,77.71
2018-09-25T06:01:17.448Z,77.90
2018-09-25T06:02:17.434Z,77.86
2018-09-25T06:03:17.418Z,77.58
2018-09-25T06:04:17.394Z,77.71
2018-09-25T06:05:17.396Z,77.71
2018-09-25T06:06:17.374Z,77.81
2018-09-25T06:07:17.356Z,78.00
2018-09-25T06:08:17.347Z,78.19
2018-09-25T06:09:17.347Z,77.90
2018-09-25T06:10:17.314Z,77.52
2018-09-25T06:11:17.302Z,77.43
2018-09-25T06:12:17.282Z,77.43
2018-09-25T06:13:17.264Z,78.00
2018-09-25T06:14:17.252Z,77.62
2018-09-25T06:15:17.237Z,77.81
2018-09-25T06:16:17.232Z,78.09
2018-09-25T06:17:17.213Z,78.09
2018-09-25T06:18:17.197Z,77.71
2018-09-25T06:19:17.185Z,78.09
2018-09-25T06:20:17.167Z,77.62
2018-09-25T06:21:17.161Z,77.71
2018-09-25T06:22:17.143Z,76.86
2018-09-25T06:23:17.125Z,76.57
2018-09-25T06:24:17.109Z,76.57
2018-09-25T06:25:17.092Z,76.39
2018-09-25T06:26:17.080Z,76.86
2018-09-25T06:27:17.064Z,77.33
2018-09-25T06:28:17.050Z,77.33
2018-09-25T06:29:17.032Z,77.52
2018-09-25T06:30:17.020Z,77.62
2018-09-25T06:31:17.006Z,77.90
2018-09-25T06:32:16.989Z,78.00
2018-09-25T06:33:16.977Z,77.71
2018-09-25T06:34:16.958Z,78.38
2018-09-25T06:35:16.957Z,77.71
2018-09-25T06:36:16.928Z,77.52
2018-09-25T06:37:16.989Z,77.33
2018-09-25T06:38:16.904Z,77.05
2018-09-25T06:39:16.888Z,77.43
2018-09-25T06:40:16.872Z,78.00
2018-09-25T06:41:16.860Z,77.62
2018-09-25T06:42:16.848Z,77.62
2018-09-25T06:43:16.833Z,77.81
2018-09-25T06:44:16.819Z,78.00
2018-09-25T06:45:16.805Z,78.00
2018-09-25T06:46:16.794Z,78.09
2018-09-25T06:47:16.793Z,77.71
2018-09-25T06:48:16.760Z,77.71
2018-09-25T06:49:16.748Z,76.80
2018-09-25T06:50:16.735Z,77.18
2018-09-25T06:51:16.713Z,76.61
2018-09-25T06:52:16.707Z,76.61
2018-09-25T06:53:16.685Z,76.61
2018-09-25T06:54:16.677Z,76.14
2018-09-25T06:55:16.733Z,75.76
2018-09-25T06:56:16.648Z,75.89
2018-09-25T06:57:16.625Z,75.13
2018-09-25T06:58:16.613Z,74.85
2018-09-25T06:59:16.601Z,74.66
2018-09-25T07:00:16.585Z,73.90
2018-09-25T07:01:16.563Z,74.47
2018-09-25T07:02:16.559Z,73.99
2018-09-25T07:03:16.542Z,73.65
2018-09-25T07:04:16.521Z,73.36
2018-09-25T07:05:16.512Z,72.79
2018-09-25T07:06:16.498Z,72.70
2018-09-25T07:07:16.483Z,72.22
2018-09-25T07:08:16.480Z,72.51
2018-09-25T07:09:16.456Z,72.07
2018-09-25T07:10:16.522Z,71.59
2018-09-25T07:11:16.430Z,71.78
2018-09-25T07:12:16.412Z,72.16
2018-09-25T07:13:16.401Z,72.16
2018-09-25T07:14:16.391Z,71.88
2018-09-25T07:15:16.373Z,71.88
2018-09-25T07:16:16.361Z,71.41
2018-09-25T07:17:16.347Z,71.97
2018-09-25T07:18:16.328Z,71.88
2018-09-25T07:19:16.318Z,72.45
2018-09-25T07:20:16.302Z,72.16
2018-09-25T07:21:16.290Z,71.78
2018-09-25T07:22:16.275Z,71.88
2018-09-25T07:23:16.273Z,72.07
2018-09-25T07:24:16.246Z,71.97
2018-09-25T07:25:16.234Z,71.88
2018-09-25T07:26:16.222Z,72.45
2018-09-25T07:27:16.207Z,72.58
2018-09-25T07:28:16.191Z,71.63
2018-09-25T07:29:16.181Z,71.72
2018-09-25T07:30:16.169Z,71.34
2018-09-25T07:31:16.157Z,70.77
2018-09-25T07:32:16.135Z,69.82
2018-09-25T07:33:16.127Z,70.24
2018-09-25T07:34:16.113Z,69.10
2018-09-25T07:35:16.098Z,68.33
2018-09-25T07:36:16.088Z,68.24
2018-09-25T07:37:16.073Z,68.43
2018-09-25T07:38:16.055Z,68.43
2018-09-25T07:39:16.043Z,68.18
2018-09-25T07:40:16.029Z,67.70
2018-09-25T07:41:16.018Z,67.89
2018-09-25T07:42:16.008Z,67.51
2018-09-25T07:43:15.993Z,67.41
2018-09-25T07:44:15.977Z,67.51
2018-09-25T07:45:15.964Z,67.99
2018-09-25T07:46:15.951Z,68.08
2018-09-25T07:47:15.941Z,67.89
2018-09-25T07:48:15.974Z,67.99
2018-09-25T07:49:15.914Z,67.89
2018-09-25T07:50:15.898Z,67.61
2018-09-25T07:51:15.891Z,67.51
2018-09-25T07:52:15.874Z,66.66
2018-09-25T07:53:15.865Z,65.70
2018-09-25T07:54:15.845Z,65.42
2018-09-25T07:55:15.832Z,64.94
2018-09-25T07:56:15.822Z,64.75
2018-09-25T07:57:15.809Z,64.65
2018-09-25T07:58:15.800Z,64.47
2018-09-25T07:59:15.789Z,64.94
2018-09-25T08:00:15.773Z,65.42
2018-09-25T08:01:15.771Z,67.03
2018-09-25T08:02:15.743Z,66.56
2018-09-25T08:03:15.804Z,65.92
2018-09-25T08:04:15.732Z,65.36
2018-09-25T08:05:15.716Z,63.54
2018-09-25T08:06:15.697Z,61.70
2018-09-25T08:07:15.684Z,61.25
2018-09-25T08:08:15.672Z,61.64
2018-09-25T08:09:15.653Z,62.02
2018-09-25T08:10:15.648Z,61.80
2018-09-25T08:11:15.628Z,61.70
2018-09-25T08:12:15.622Z,61.16
2018-09-25T08:13:15.604Z,61.70
2018-09-25T08:14:15.594Z,62.12
2018-09-25T08:15:15.614Z,61.80
2018-09-25T08:16:15.572Z,62.56
2018-09-25T08:17:15.557Z,63.23
2018-09-25T08:18:15.545Z,63.23
2018-09-25T08:19:15.533Z,63.13
2018-09-25T08:20:15.517Z,63.60
2018-09-25T08:21:15.509Z,63.23
2018-09-25T08:22:15.495Z,62.85
2018-09-25T08:23:15.483Z,61.90
2018-09-25T08:24:15.482Z,61.70
2018-09-25T08:25:15.454Z,61.70
2018-09-25T08:26:15.448Z,62.46
2018-09-25T08:27:15.433Z,63.23
2018-09-25T08:28:15.418Z,63.64
2018-09-25T08:29:15.405Z,64.02
2018-09-25T08:30:15.391Z,62.40
2018-09-25T08:31:15.383Z,61.93
2018-09-25T08:32:15.371Z,61.93
2018-09-25T08:33:15.357Z,61.73
2018-09-25T08:34:15.340Z,59.74
2018-09-25T08:35:15.334Z,59.74
2018-09-25T08:36:15.321Z,59.95
2018-09-25T08:37:15.311Z,60.14
2018-09-25T08:38:15.300Z,60.43
2018-09-25T08:39:15.306Z,60.62
2018-09-25T08:40:15.273Z,61.19
2018-09-25T08:41:15.260Z,62.43
2018-09-25T08:42:15.246Z,63.20
2018-09-25T08:43:15.235Z,61.76
2018-09-25T08:44:15.223Z,59.95
2018-09-25T08:45:15.209Z,60.24
2018-09-25T08:46:15.199Z,59.57
2018-09-25T08:47:15.183Z,58.81
2018-09-25T08:48:15.167Z,58.81
2018-09-25T08:49:15.162Z,60.91
2018-09-25T08:50:15.149Z,60.05
2018-09-25T08:51:15.136Z,57.95
2018-09-25T08:52:15.126Z,58.07
2018-09-25T08:53:15.112Z,58.75
2018-09-25T08:54:15.102Z,58.26
2018-09-25T08:55:15.102Z,56.93
2018-09-25T08:56:15.094Z,57.03
2018-09-25T08:57:15.059Z,56.26
2018-09-25T08:58:15.055Z,56.65
2018-09-25T08:59:15.043Z,56.84
2018-09-25T09:00:15.027Z,56.48
2018-09-25T09:01:15.017Z,57.53
2018-09-25T09:02:15.003Z,56.77
2018-09-25T09:03:14.995Z,55.91
2018-09-25T09:04:14.983Z,54.96
2018-09-25T09:05:14.970Z,54.29
2018-09-25T09:06:14.960Z,54.83
2018-09-25T09:07:14.944Z,54.29
2018-09-25T09:08:14.944Z,53.69
2018-09-25T09:09:14.923Z,53.69
2018-09-25T09:10:14.908Z,53.69
2018-09-25T09:11:14.900Z,54.55
2018-09-25T09:12:14.886Z,55.41
2018-09-25T09:13:14.872Z,55.69
2018-09-25T09:14:14.863Z,54.64
2018-09-25T09:15:14.851Z,54.45
2018-09-25T09:16:14.839Z,54.45
2018-09-25T09:17:14.828Z,54.36
2018-09-25T09:18:14.818Z,55.21
2018-09-25T09:19:14.800Z,55.79
2018-09-25T09:20:14.870Z,55.21
2018-09-25T09:21:14.785Z,54.74
2018-09-25T09:22:14.763Z,54.64
2018-09-25T09:23:14.766Z,54.74
2018-09-25T09:24:14.751Z,55.15
2018-09-25T09:25:14.739Z,54.19
2018-09-25T09:26:14.729Z,54.38
2018-09-25T09:27:14.715Z,54.00
2018-09-25T09:28:14.701Z,54.19
2018-09-25T09:29:14.683Z,54.48
2018-09-25T09:30:14.676Z,53.91
2018-09-25T09:31:14.666Z,54.29
2018-09-25T09:32:14.654Z,52.86
2018-09-25T09:33:14.640Z,50.76
2018-09-25T09:34:14.630Z,52.50
2018-09-25T09:35:14.620Z,53.84
2018-09-25T09:36:14.606Z,53.72
2018-09-25T09:37:14.592Z,52.79
2018-09-25T09:38:14.589Z,52.59
2018-09-25T09:39:14.573Z,52.40
2018-09-25T09:40:14.557Z,52.40
2018-09-25T09:41:14.666Z,52.22
2018-09-25T09:42:14.541Z,51.83
2018-09-25T09:43:14.525Z,52.69
2018-09-25T09:44:14.514Z,52.31
2018-09-25T09:45:14.506Z,52.40
2018-09-25T09:46:14.494Z,52.03
2018-09-25T09:47:14.482Z,51.17
2018-09-25T09:48:14.470Z,51.83
2018-09-25T09:49:14.461Z,52.59
2018-09-25T09:50:14.486Z,53.36
2018-09-25T09:51:14.444Z,52.69
2018-09-25T09:52:14.427Z,52.40
2018-09-25T09:53:14.415Z,53.67
2018-09-25T09:54:14.407Z,53.86
2018-09-25T09:55:17.116Z,53.77
2018-09-25T09:56:14.434Z,53.00
2018-09-25T09:57:14.364Z,52.24
2018-09-25T09:58:14.358Z,51.76
2018-09-25T09:59:14.342Z,51.67
2018-09-25T10:00:15.248Z,52.15
2018-09-25T10:01:14.329Z,51.95
2018-09-25T10:02:14.314Z,51.86
2018-09-25T10:03:14.306Z,52.81
2018-09-25T10:04:14.294Z,52.53
2018-09-25T10:05:14.280Z,50.52
2018-09-25T10:06:14.271Z,50.33
2018-09-25T10:07:14.298Z,51.38
2018-09-25T10:08:14.248Z,51.95
2018-09-25T10:09:14.236Z,51.98
2018-09-25T10:10:14.225Z,51.12
2018-09-25T10:11:14.217Z,51.70
2018-09-25T10:12:14.222Z,51.79
2018-09-25T10:13:14.232Z,51.81
2018-09-25T10:14:14.195Z,50.57
2018-09-25T10:15:14.171Z,52.01
2018-09-25T10:16:14.158Z,53.25
2018-09-25T10:17:14.162Z,51.05
2018-09-25T10:18:14.159Z,49.80
2018-09-25T10:19:14.152Z,50.95
2018-09-25T10:20:14.130Z,50.38
2018-09-25T10:21:14.123Z,48.75
2018-09-25T10:22:14.116Z,49.33
2018-09-25T10:23:14.098Z,49.80
2018-09-25T10:24:14.096Z,49.43
2018-09-25T10:25:14.085Z,48.85
2018-09-25T10:26:14.073Z,48.66
2018-09-25T10:27:14.110Z,49.40
2018-09-25T10:28:14.046Z,48.64
2018-09-25T10:29:14.039Z,47.87
2018-09-25T10:30:14.028Z,48.16
2018-09-25T10:31:14.020Z,47.71
2018-09-25T10:32:14.015Z,48.28
2018-09-25T10:33:13.995Z,47.99
2018-09-25T10:34:14.018Z,47.71
2018-09-25T10:35:13.974Z,48.85
2018-09-25T10:36:13.966Z,48.66
2018-09-25T10:37:13.956Z,47.80
2018-09-25T10:38:13.946Z,47.03
2018-09-25T10:39:13.948Z,45.70
2018-09-25T10:40:13.920Z,46.46
2018-09-25T10:41:13.918Z,48.75
2018-09-25T10:42:13.905Z,48.09
2018-09-25T10:43:13.896Z,46.56
2018-09-25T10:44:13.883Z,46.27
2018-09-25T10:45:13.871Z,47.80
2018-09-25T10:46:13.868Z,49.23
2018-09-25T10:47:13.859Z,48.09
2018-09-25T10:48:13.839Z,45.60
2018-09-25T10:49:13.829Z,44.55
2018-09-25T10:50:13.872Z,45.51
2018-09-25T10:51:13.810Z,46.58
2018-09-25T10:52:13.798Z,46.87
2018-09-25T10:53:13.791Z,47.82
2018-09-25T10:54:13.783Z,48.02
2018-09-25T10:55:13.776Z,48.61
2018-09-25T10:56:13.862Z,48.80
2018-09-25T10:57:13.746Z,46.51
2018-09-25T10:58:13.739Z,46.70
2018-09-25T10:59:13.724Z,44.69
2018-09-25T11:00:13.717Z,44.21
2018-09-25T11:01:13.709Z,44.21
2018-09-25T11:02:13.696Z,44.31
2018-09-25T11:03:13.711Z,44.21
2018-09-25T11:04:13.677Z,43.06
2018-09-25T11:05:13.672Z,42.68
2018-09-25T11:06:13.661Z,43.16
2018-09-25T11:07:13.650Z,44.57
2018-09-25T11:08:13.641Z,44.50
2018-09-25T11:09:13.629Z,45.65
2018-09-25T11:10:13.684Z,45.26
2018-09-25T11:11:13.611Z,46.70
2018-09-25T11:12:13.600Z,45.65
2018-09-25T11:13:13.584Z,45.74
2018-09-25T11:14:13.580Z,45.17
2018-09-25T11:15:13.567Z,45.36
2018-09-25T11:16:13.559Z,46.41
2018-09-25T11:17:13.545Z,45.07
2018-09-25T11:18:13.543Z,44.50
2018-09-25T11:19:13.529Z,45.07
2018-09-25T11:20:13.518Z,45.26
2018-09-25T11:21:13.507Z,44.50
2018-09-25T11:22:13.506Z,44.31
2018-09-25T11:23:13.494Z,44.04
2018-09-25T11:24:13.478Z,44.52
2018-09-25T11:25:13.469Z,44.90
2018-09-25T11:26:13.463Z,44.71
2018-09-25T11:27:13.451Z,45.09
2018-09-25T11:28:13.444Z,45.48
2018-09-25T11:29:13.432Z,45.29
2018-09-25T11:30:13.420Z,44.33
2018-09-25T11:31:13.415Z,44.62
2018-09-25T11:32:13.404Z,43.87
2018-09-25T11:33:13.392Z,43.87
2018-09-25T11:34:13.388Z,44.26
2018-09-25T11:35:13.398Z,43.68
2018-09-25T11:36:13.366Z,43.97
2018-09-25T11:37:13.353Z,44.64
2018-09-25T11:38:13.349Z,44.76
2018-09-25T11:39:13.336Z,44.09
2018-09-25T11:40:13.323Z,42.74
2018-09-25T11:41:13.375Z,41.78
2018-09-25T11:42:13.303Z,42.07
2018-09-25T11:43:13.297Z,43.03
2018-09-25T11:44:13.287Z,43.03
2018-09-25T11:45:13.280Z,43.32
2018-09-25T11:46:13.270Z,43.32
2018-09-25T11:47:13.341Z,43.41
2018-09-25T11:48:13.256Z,43.51
2018-09-25T11:49:13.245Z,42.65
2018-09-25T11:50:13.238Z,43.32
2018-09-25T11:51:13.223Z,42.74
2018-09-25T11:52:13.216Z,41.69
2018-09-25T11:53:13.209Z,40.44
2018-09-25T11:54:13.197Z,40.92
2018-09-25T11:55:13.185Z,41.60
2018-09-25T11:56:13.201Z,41.40
2018-09-25T11:57:13.171Z,40.35
2018-09-25T11:58:13.163Z,40.44
2018-09-25T11:59:13.155Z,42.00
2018-09-25T12:00:13.139Z,41.69
2018-09-25T12:01:13.131Z,40.83
2018-09-25T12:02:13.175Z,40.27
2018-09-25T12:03:13.114Z,41.61
2018-09-25T12:04:13.122Z,41.71
2018-09-25T12:05:13.095Z,41.13
2018-09-25T12:06:13.084Z,41.52
2018-09-25T12:07:13.075Z,39.50
2018-09-25T12:08:13.068Z,41.71
2018-09-25T12:09:13.061Z,43.53
2018-09-25T12:10:13.051Z,42.47
2018-09-25T12:11:13.039Z,41.04
2018-09-25T12:12:13.033Z,41.52
2018-09-25T12:13:13.026Z,40.47
2018-09-25T12:14:13.017Z,40.94
2018-09-25T12:15:13.005Z,41.13
2018-09-25T12:16:12.995Z,41.90
2018-09-25T12:17:12.990Z,41.52
2018-09-25T12:18:12.981Z,40.17
2018-09-25T12:19:12.969Z,40.27
2018-09-25T12:20:12.961Z,41.13
2018-09-25T12:21:12.953Z,41.71
2018-09-25T12:22:12.948Z,41.90
2018-09-25T12:23:12.971Z,41.61
2018-09-25T12:24:12.926Z,41.23
2018-09-25T12:25:12.919Z,41.80
2018-09-25T12:26:12.907Z,41.90
2018-09-25T12:27:12.897Z,42.29
2018-09-25T12:28:12.891Z,42.57
2018-09-25T12:29:12.880Z,42.50
2018-09-25T12:30:12.890Z,41.83
2018-09-25T12:31:12.861Z,41.25
2018-09-25T12:32:12.858Z,40.58
2018-09-25T12:33:12.860Z,40.02
2018-09-25T12:34:12.840Z,39.35
2018-09-25T12:35:12.831Z,40.02
2018-09-25T12:36:12.822Z,39.93
2018-09-25T12:37:12.817Z,37.91
2018-09-25T12:38:12.805Z,37.24
2018-09-25T12:39:12.793Z,37.05
2018-09-25T12:40:12.787Z,35.89
2018-09-25T12:41:12.781Z,36.47
2018-09-25T12:42:12.766Z,37.05
2018-09-25T12:43:12.760Z,38.01
2018-09-25T12:44:12.750Z,40.12
2018-09-25T12:45:12.741Z,40.02
2018-09-25T12:46:12.734Z,39.76
2018-09-25T12:47:12.728Z,39.28
2018-09-25T12:48:12.717Z,40.14
2018-09-25T12:49:12.715Z,41.77
2018-09-25T12:50:12.697Z,39.76
2018-09-25T12:51:12.693Z,38.99
2018-09-25T12:52:12.692Z,38.51